Pleasant Grove, UT (84062)

1:28 AM MDT on August 31, 2014 (GMT -0600)
Cedar Hills - South | Change Station
CLOSE
Current Station
Personal Weather Station
Location: Cedar Hills, UT
Elevation: 4969 ft
Nearby Weather Stations

Elev 4969 ft 40.40 °N, 111.74 °W | Updated 7 seconds ago

Overcast
Overcast
73.7 °F
Feels Like 76 °F
N
0.0
Wind Variable Wind from East
Gusts 0.0 mph

Today
High -- | Low -- °F
--% Chance of Precip.
Yesterday
High -- | Low -- °F
Precip. -- in
6:53 AM 8:00 PM
Waxing Crescent, 28% visible
Pressure 29.85 in
Visibility 10.0 miles
Clouds Scattered Clouds 12000 ft
Heat Index 76 °F
Dew Point 35 °F
Humidity 24%
Rainfall 0.00 in
Snow Depth Not available.
UV 0 out of 12
Pollen 8.60 out of 12
Air Quality Not available.
Flu Activity Not available.
METAR KPVU 310715Z AUTO 00000KT 10SM SCT120 23/06 A2985 RMK AO1

More Conditions Fewer Conditions

Pressure 29.85 in
Visibility 10.0 miles
Clouds Scattered Clouds 12000 ft
Heat Index 76 °F
Dew Point 35 °F
Humidity 24%
Rainfall 0.00 in
Snow Depth Not available.
UV 0 out of 12
Pollen 8.60 out of 12
Air Quality Not available.
Flu Activity Not available.
METAR KPVU 310715Z AUTO 00000KT 10SM SCT120 23/06 A2985 RMK AO1

More Conditions Fewer Conditions

10-Day Weather Forecast

Almanac

Astronomy

Aug. 31, 2014 Rise Set
Actual Time 6:53 AM MDT 8:00 PM MDT
Civil Twilight 6:25 AM MDT 8:28 PM MDT
Nautical Twilight 5:51 AM MDT 9:01 PM MDT
Astronomical Twilight 5:16 AM MDT 9:36 PM MDT
Moon 12:44 PM MDT 11:16 PM MDT
Length of Visible Light 14h 02m
Length of Day
13h 06m
Tomorrow will be 2m 34s shorter.
Waxing Crescent, 28% of the Moon is Illuminated
Today
Waxing Crescent
Sep 2
First Quarter
Sep 8
Full
Sep 15
Last Quarter
Sep 24
New

Today's Extremes

State Highs State Lows

Community

WunderPhotos

Upload Photos

1,748,809 photos uploaded!

Nearby

Snow Depth

Station Depth Elevation
Cascade Mountain 0 in 7768 ft
Mill-d North 0 in 8960 ft
Thaynes Canyon 0 in 9200 ft
Rocky Basin-Settlement 0 in 8900 ft
Daniels-Strawberry 0 in 8000 ft

Earthquake Activity

City Distance Mag. Time & Date
No recent earthquake activity has been reported nearby.
Minimum magnitude displayed is 2.5.

Coastal Water Temperatures

Place Temperature
No Stations Reporting

Nearby Weather Stations